createdAt,value
2017-07-31T00:00:03.576Z,1006.02
2017-07-31T00:00:29.741Z,1006.01
2017-07-31T00:00:55.846Z,1006.03
2017-07-31T00:01:22.027Z,1006.04
2017-07-31T00:01:48.143Z,1006.09
2017-07-31T00:02:14.292Z,1006.06
2017-07-31T00:02:40.433Z,1006.14
2017-07-31T00:03:06.520Z,1006.09
2017-07-31T00:03:32.693Z,1006.13
2017-07-31T00:03:58.825Z,1006.12
2017-07-31T00:04:24.985Z,1006.19
2017-07-31T00:04:51.168Z,1006.2
2017-07-31T00:05:17.311Z,1006.18
2017-07-31T00:05:43.462Z,1006.19
2017-07-31T00:06:09.625Z,1006.19
2017-07-31T00:06:35.783Z,1006.24
2017-07-31T00:07:01.881Z,1006.2
2017-07-31T00:07:28.016Z,1006.23
2017-07-31T00:07:54.129Z,1006.24
2017-07-31T00:08:20.275Z,1006.26
2017-07-31T00:08:46.411Z,1006.27
2017-07-31T00:09:12.579Z,1006.3
2017-07-31T00:09:38.668Z,1006.32
2017-07-31T00:10:04.799Z,1006.35
2017-07-31T00:10:30.968Z,1006.36
2017-07-31T00:10:57.102Z,1006.36
2017-07-31T00:11:23.244Z,1006.34
2017-07-31T00:11:49.364Z,1006.37
2017-07-31T00:12:15.497Z,1006.33
2017-07-31T00:12:41.641Z,1006.3
2017-07-31T00:13:07.786Z,1006.31
2017-07-31T00:13:33.941Z,1006.27
2017-07-31T00:14:00.062Z,1006.27
2017-07-31T00:14:26.174Z,1006.24
2017-07-31T00:14:52.310Z,1006.22
2017-07-31T00:15:18.436Z,1006.2
2017-07-31T00:15:44.534Z,1006.14
2017-07-31T00:16:10.628Z,1006.11
2017-07-31T00:16:36.714Z,1006.09
2017-07-31T00:17:02.877Z,1006.05
2017-07-31T00:17:29.024Z,1006.03
2017-07-31T00:17:55.163Z,1006
2017-07-31T00:18:21.300Z,1006.01
2017-07-31T00:18:47.427Z,1005.97
2017-07-31T00:19:13.591Z,1005.97
2017-07-31T00:19:39.746Z,1005.98
2017-07-31T00:20:05.933Z,1005.99
2017-07-31T00:20:32.021Z,1005.99
2017-07-31T00:20:58.200Z,1006.06
2017-07-31T00:21:24.319Z,1006
2017-07-31T00:21:50.480Z,1006
2017-07-31T00:22:16.607Z,1006.04
2017-07-31T00:22:42.748Z,1006.02
2017-07-31T00:23:08.875Z,1006.02
2017-07-31T00:23:35.039Z,1006.06
2017-07-31T00:24:01.153Z,1006.08
2017-07-31T00:24:27.299Z,1006.1
2017-07-31T00:24:53.459Z,1006.14
2017-07-31T00:25:19.599Z,1006.18
2017-07-31T00:25:45.743Z,1006.17
2017-07-31T00:26:11.874Z,1006.22
2017-07-31T00:26:37.997Z,1006.17
2017-07-31T00:27:04.150Z,1006.24
2017-07-31T00:27:30.319Z,1006.21
2017-07-31T00:27:56.416Z,1006.2
2017-07-31T00:28:22.576Z,1006.2
2017-07-31T00:28:48.691Z,1006.17
2017-07-31T00:29:14.810Z,1006.16
2017-07-31T00:29:40.945Z,1006.19
2017-07-31T00:30:07.066Z,1006.19
2017-07-31T00:30:33.157Z,1006.13
2017-07-31T00:30:59.294Z,1006.13
2017-07-31T00:31:25.446Z,1006.08
2017-07-31T00:31:51.560Z,1006.1
2017-07-31T00:32:17.719Z,1006.1
2017-07-31T00:32:43.862Z,1006.05
2017-07-31T00:33:10.019Z,1006.08
2017-07-31T00:33:36.192Z,1006.05
2017-07-31T00:34:02.310Z,1006.06
2017-07-31T00:34:28.500Z,1006.07
2017-07-31T00:34:54.622Z,1006.08
2017-07-31T00:35:20.760Z,1006.08
2017-07-31T00:35:46.895Z,1006.08
2017-07-31T00:36:13.021Z,1006.07
2017-07-31T00:36:39.184Z,1006.08
2017-07-31T00:37:05.337Z,1006.04
2017-07-31T00:37:31.470Z,1006.01
2017-07-31T00:37:57.583Z,1006.03
2017-07-31T00:38:23.706Z,1006.02
2017-07-31T00:38:49.813Z,1006
2017-07-31T00:39:15.955Z,1005.98
2017-07-31T00:39:42.050Z,1005.99
2017-07-31T00:40:08.184Z,1006
2017-07-31T00:40:34.304Z,1006.05
2017-07-31T00:41:00.467Z,1005.96
2017-07-31T00:41:26.631Z,1005.97
2017-07-31T00:41:52.752Z,1005.99
2017-07-31T00:42:18.868Z,1005.97
2017-07-31T00:42:45.002Z,1005.92
2017-07-31T00:43:11.100Z,1005.93
2017-07-31T00:43:37.225Z,1005.96
2017-07-31T00:44:03.347Z,1005.93
2017-07-31T00:44:29.486Z,1005.92
2017-07-31T00:44:55.653Z,1005.9
2017-07-31T00:45:21.803Z,1005.89
2017-07-31T00:45:47.968Z,1005.87
2017-07-31T00:46:14.157Z,1005.88
2017-07-31T00:46:40.288Z,1005.83
2017-07-31T00:47:06.475Z,1005.86
2017-07-31T00:47:32.577Z,1005.85
2017-07-31T00:47:58.684Z,1005.88
2017-07-31T00:48:24.771Z,1005.85
2017-07-31T00:48:50.921Z,1005.85
2017-07-31T00:49:17.064Z,1005.89
2017-07-31T00:49:43.255Z,1005.87
2017-07-31T00:50:09.411Z,1005.89
2017-07-31T00:50:35.500Z,1005.9
2017-07-31T00:51:01.630Z,1005.85
2017-07-31T00:51:27.786Z,1005.85
2017-07-31T00:51:53.874Z,1005.82
2017-07-31T00:52:20.001Z,1005.84
2017-07-31T00:52:46.107Z,1005.84
2017-07-31T00:53:12.195Z,1005.86
2017-07-31T00:53:38.339Z,1005.86
2017-07-31T00:54:04.531Z,1005.82
2017-07-31T00:54:30.706Z,1005.85
2017-07-31T00:54:56.864Z,1005.83
2017-07-31T00:55:23.001Z,1005.85
2017-07-31T00:55:49.155Z,1005.83
2017-07-31T00:56:15.368Z,1005.87
2017-07-31T00:56:41.461Z,1005.82
2017-07-31T00:57:07.603Z,1005.84
2017-07-31T00:57:33.766Z,1005.84
2017-07-31T00:57:59.883Z,1005.89
2017-07-31T00:58:26.024Z,1005.87
2017-07-31T00:58:52.215Z,1005.89
2017-07-31T00:59:18.339Z,1005.93
2017-07-31T00:59:44.429Z,1005.92
2017-07-31T01:00:10.558Z,1005.93
2017-07-31T01:00:36.652Z,1005.9
2017-07-31T01:01:02.785Z,1005.95
2017-07-31T01:01:28.929Z,1005.93
2017-07-31T01:01:55.044Z,1005.99
2017-07-31T01:02:21.155Z,1005.93
2017-07-31T01:02:47.332Z,1005.97
2017-07-31T01:03:13.474Z,1005.96
2017-07-31T01:03:39.656Z,1005.98
2017-07-31T01:04:05.785Z,1005.97
2017-07-31T01:04:31.949Z,1006
2017-07-31T01:04:58.076Z,1006
2017-07-31T01:05:24.211Z,1006.01
2017-07-31T01:05:50.328Z,1006.04
2017-07-31T01:06:16.483Z,1006.02
2017-07-31T01:06:42.644Z,1006.03
2017-07-31T01:07:08.775Z,1006.05
2017-07-31T01:07:34.900Z,1006.02
2017-07-31T01:08:01.038Z,1006.01
2017-07-31T01:08:27.138Z,1006
2017-07-31T01:08:53.270Z,1006.01
2017-07-31T01:09:19.390Z,1006.01
2017-07-31T01:09:45.558Z,1006
2017-07-31T01:10:11.723Z,1006.01
2017-07-31T01:10:37.888Z,1006.05
2017-07-31T01:11:04.005Z,1006.02
2017-07-31T01:11:30.152Z,1006.07
2017-07-31T01:11:56.281Z,1006.03
2017-07-31T01:12:22.440Z,1006.05
2017-07-31T01:12:48.553Z,1006.04
2017-07-31T01:13:14.673Z,1006.02
2017-07-31T01:13:40.783Z,1006.05
2017-07-31T01:14:06.925Z,1006.03
2017-07-31T01:14:33.070Z,1006.06
2017-07-31T01:14:59.227Z,1006.03
2017-07-31T01:15:25.321Z,1006.07
2017-07-31T01:15:51.410Z,1006.07
2017-07-31T01:16:17.574Z,1006.09
2017-07-31T01:16:43.671Z,1006.09
2017-07-31T01:17:09.801Z,1006.09
2017-07-31T01:17:35.939Z,1006.06
2017-07-31T01:18:02.084Z,1006.07
2017-07-31T01:18:28.246Z,1006.08
2017-07-31T01:18:54.363Z,1006.07
2017-07-31T01:19:20.476Z,1006.08
2017-07-31T01:19:46.613Z,1006.08
2017-07-31T01:20:12.763Z,1006.05
2017-07-31T01:20:38.879Z,1006.02
2017-07-31T01:21:05.037Z,1006.02
2017-07-31T01:21:31.164Z,1006
2017-07-31T01:21:57.304Z,1006.02
2017-07-31T01:22:23.485Z,1006.01
2017-07-31T01:22:49.619Z,1006.01
2017-07-31T01:23:15.730Z,1006
2017-07-31T01:23:41.858Z,1006.01
2017-07-31T01:24:08.046Z,1006.04
2017-07-31T01:24:34.186Z,1006.02
2017-07-31T01:25:00.307Z,1006.02
2017-07-31T01:25:26.442Z,1006
2017-07-31T01:25:52.562Z,1006.01
2017-07-31T01:26:18.729Z,1006
2017-07-31T01:26:44.916Z,1006
2017-07-31T01:27:11.037Z,1006
2017-07-31T01:27:37.151Z,1006
2017-07-31T01:28:03.282Z,1006.02
2017-07-31T01:28:29.376Z,1006.01
2017-07-31T01:28:55.540Z,1006.06
2017-07-31T01:29:21.685Z,1006.04
2017-07-31T01:29:47.823Z,1006.06
2017-07-31T01:30:13.987Z,1006.05
2017-07-31T01:30:40.106Z,1006.02
2017-07-31T01:31:06.200Z,1006.08
2017-07-31T01:31:32.390Z,1006.05
2017-07-31T01:31:58.544Z,1006.03
2017-07-31T01:32:24.659Z,1006.06
2017-07-31T01:32:50.789Z,1006.02
2017-07-31T01:33:16.948Z,1006.04
2017-07-31T01:33:43.066Z,1006.06
2017-07-31T01:34:09.212Z,1006.06
2017-07-31T01:34:35.378Z,1006.08
2017-07-31T01:35:01.539Z,1006.04
2017-07-31T01:35:27.667Z,1006.04
2017-07-31T01:35:53.779Z,1006.03
2017-07-31T01:36:19.909Z,1006.03
2017-07-31T01:36:46.042Z,1006.02
2017-07-31T01:37:12.210Z,1006.04
2017-07-31T01:37:38.374Z,1006.02
2017-07-31T01:38:04.590Z,1006.02
2017-07-31T01:38:30.705Z,1005.99
2017-07-31T01:38:56.800Z,1005.98
2017-07-31T01:39:22.952Z,1006
2017-07-31T01:39:49.055Z,1006
2017-07-31T01:40:15.162Z,1005.96
2017-07-31T01:40:41.294Z,1005.99
2017-07-31T01:41:07.468Z,1005.98
2017-07-31T01:41:33.654Z,1005.99
2017-07-31T01:41:59.749Z,1005.97
2017-07-31T01:42:25.891Z,1005.96
2017-07-31T01:42:51.998Z,1005.99
2017-07-31T01:43:18.143Z,1005.98
2017-07-31T01:43:44.281Z,1005.98
2017-07-31T01:44:10.445Z,1006
2017-07-31T01:44:36.590Z,1006.02
2017-07-31T01:45:02.748Z,1006.03
2017-07-31T01:45:28.887Z,1006
2017-07-31T01:45:55.008Z,1006
2017-07-31T01:46:21.140Z,1006.03
2017-07-31T01:46:47.256Z,1006.02
2017-07-31T01:47:13.368Z,1006.01
2017-07-31T01:47:39.505Z,1006.01
2017-07-31T01:48:05.630Z,1006
2017-07-31T01:48:31.768Z,1005.96
2017-07-31T01:48:57.899Z,1005.96
2017-07-31T01:49:24.055Z,1005.97
2017-07-31T01:49:50.169Z,1005.96
2017-07-31T01:50:16.327Z,1005.96
2017-07-31T01:50:42.418Z,1005.96
2017-07-31T01:51:08.555Z,1005.96
2017-07-31T01:51:34.734Z,1005.98
2017-07-31T01:52:00.873Z,1005.94
2017-07-31T01:52:27.007Z,1006
2017-07-31T01:52:53.112Z,1005.96
2017-07-31T01:53:19.221Z,1005.98
2017-07-31T01:53:45.350Z,1005.97
2017-07-31T01:54:11.483Z,1005.99
2017-07-31T01:54:37.594Z,1005.99
2017-07-31T01:55:03.695Z,1006
2017-07-31T01:55:29.828Z,1005.98
2017-07-31T01:55:55.939Z,1005.97
2017-07-31T01:56:22.098Z,1005.93
2017-07-31T01:56:48.233Z,1005.97
2017-07-31T01:57:14.389Z,1005.96
2017-07-31T01:57:40.547Z,1006.01
2017-07-31T01:58:06.635Z,1005.99
2017-07-31T01:58:32.734Z,1005.98
2017-07-31T01:58:58.866Z,1006.01
2017-07-31T01:59:25.033Z,1006
2017-07-31T01:59:51.181Z,1005.99
2017-07-31T02:00:17.342Z,1006.03
2017-07-31T02:00:43.464Z,1005.98
2017-07-31T02:01:09.575Z,1006.03
2017-07-31T02:01:35.758Z,1006
2017-07-31T02:02:01.932Z,1006.01
2017-07-31T02:02:28.035Z,1006
2017-07-31T02:02:54.126Z,1006
2017-07-31T02:03:20.272Z,1006
2017-07-31T02:03:46.432Z,1005.96
2017-07-31T02:04:12.551Z,1005.93
2017-07-31T02:04:38.692Z,1005.9
2017-07-31T02:05:04.833Z,1005.92
2017-07-31T02:05:30.954Z,1005.9
2017-07-31T02:05:57.090Z,1005.9
2017-07-31T02:06:23.277Z,1005.86
2017-07-31T02:06:49.431Z,1005.84
2017-07-31T02:07:15.546Z,1005.87
2017-07-31T02:07:41.648Z,1005.85
2017-07-31T02:08:07.783Z,1005.84
2017-07-31T02:08:33.919Z,1005.82
2017-07-31T02:09:00.044Z,1005.85
2017-07-31T02:09:26.178Z,1005.85
2017-07-31T02:09:52.318Z,1005.82
2017-07-31T02:10:18.438Z,1005.84
2017-07-31T02:10:44.571Z,1005.84
2017-07-31T02:11:10.722Z,1005.83
2017-07-31T02:11:36.859Z,1005.85
2017-07-31T02:12:03.022Z,1005.83
2017-07-31T02:12:29.170Z,1005.85
2017-07-31T02:12:55.321Z,1005.85
2017-07-31T02:13:21.441Z,1005.85
2017-07-31T02:13:47.560Z,1005.89
2017-07-31T02:14:13.719Z,1005.86
2017-07-31T02:14:39.838Z,1005.88
2017-07-31T02:15:06.001Z,1005.88
2017-07-31T02:15:32.163Z,1005.93
2017-07-31T02:15:58.310Z,1005.89
2017-07-31T02:16:24.423Z,1005.89
2017-07-31T02:16:50.582Z,1005.9
2017-07-31T02:17:16.708Z,1005.88
2017-07-31T02:17:42.850Z,1005.92
2017-07-31T02:18:09.025Z,1005.93
2017-07-31T02:18:35.115Z,1005.95
2017-07-31T02:19:01.283Z,1005.94
2017-07-31T02:19:27.436Z,1005.96
2017-07-31T02:19:53.551Z,1005.94
2017-07-31T02:20:19.711Z,1005.93
2017-07-31T02:20:45.836Z,1005.94
2017-07-31T02:21:11.975Z,1005.94
2017-07-31T02:21:38.077Z,1005.97
2017-07-31T02:22:04.266Z,1005.97
2017-07-31T02:22:30.403Z,1005.95
2017-07-31T02:22:56.528Z,1005.93
2017-07-31T02:23:22.633Z,1005.98
2017-07-31T02:23:48.754Z,1005.99
2017-07-31T02:24:14.903Z,1005.95
2017-07-31T02:24:41.041Z,1005.95
2017-07-31T02:25:07.219Z,1005.92
2017-07-31T02:25:33.383Z,1005.93
2017-07-31T02:25:59.493Z,1005.95
2017-07-31T02:26:25.620Z,1005.99
2017-07-31T02:26:51.810Z,1005.97
2017-07-31T02:27:17.975Z,1005.97
2017-07-31T02:27:44.070Z,1005.98
2017-07-31T02:28:10.204Z,1005.93
2017-07-31T02:28:36.300Z,1005.94
2017-07-31T02:29:02.413Z,1005.96
2017-07-31T02:29:28.514Z,1005.97
2017-07-31T02:29:54.637Z,1005.96
2017-07-31T02:30:20.824Z,1005.96
2017-07-31T02:30:46.914Z,1005.99
2017-07-31T02:31:13.085Z,1005.94
2017-07-31T02:31:39.216Z,1005.95
2017-07-31T02:32:05.333Z,1005.98
2017-07-31T02:32:31.472Z,1005.94
2017-07-31T02:32:57.608Z,1005.96
2017-07-31T02:33:23.787Z,1005.97
2017-07-31T02:33:49.926Z,1005.9
2017-07-31T02:34:16.055Z,1005.93
2017-07-31T02:34:42.204Z,1005.95
2017-07-31T02:35:08.330Z,1005.93
2017-07-31T02:35:34.497Z,1005.94
2017-07-31T02:36:00.659Z,1005.94
2017-07-31T02:36:26.795Z,1005.92
2017-07-31T02:36:52.947Z,1005.93
2017-07-31T02:37:19.064Z,1005.95
2017-07-31T02:37:45.226Z,1005.97
2017-07-31T02:38:11.381Z,1005.94
2017-07-31T02:38:37.568Z,1005.95
2017-07-31T02:39:03.725Z,1005.96
2017-07-31T02:39:29.913Z,1005.95
2017-07-31T02:39:56.049Z,1005.93
2017-07-31T02:40:22.251Z,1005.91
2017-07-31T02:40:48.369Z,1005.93
2017-07-31T02:41:14.502Z,1005.96
2017-07-31T02:41:40.684Z,1005.95
2017-07-31T02:42:06.869Z,1005.94
2017-07-31T02:42:33.026Z,1005.95
2017-07-31T02:42:59.280Z,1005.98
2017-07-31T02:43:25.455Z,1005.92
2017-07-31T02:43:51.606Z,1005.95
2017-07-31T02:44:17.741Z,1005.93
2017-07-31T02:44:43.881Z,1005.95
2017-07-31T02:45:10.008Z,1005.95
2017-07-31T02:45:36.164Z,1005.98
2017-07-31T02:46:02.330Z,1005.96
2017-07-31T02:46:28.520Z,1005.99
2017-07-31T02:46:54.704Z,1006
2017-07-31T02:47:20.831Z,1006.01
2017-07-31T02:47:46.988Z,1005.97
2017-07-31T02:48:13.125Z,1006
2017-07-31T02:48:39.245Z,1006
2017-07-31T02:49:05.407Z,1005.97
2017-07-31T02:49:31.560Z,1005.95
2017-07-31T02:49:57.671Z,1005.97
2017-07-31T02:50:30.153Z,1005.95
2017-07-31T02:50:56.389Z,1005.95
2017-07-31T02:51:22.578Z,1005.97
2017-07-31T02:51:48.767Z,1005.97
2017-07-31T02:52:15.001Z,1005.95
2017-07-31T02:52:41.154Z,1005.98
2017-07-31T02:53:07.329Z,1005.99
2017-07-31T02:53:33.494Z,1005.96
2017-07-31T02:53:59.648Z,1005.94
2017-07-31T02:54:25.830Z,1005.97
2017-07-31T02:54:51.993Z,1005.94
2017-07-31T02:55:18.182Z,1005.94
2017-07-31T02:55:44.332Z,1005.94
2017-07-31T02:56:10.506Z,1005.97
2017-07-31T02:56:36.687Z,1005.99
2017-07-31T02:57:02.819Z,1005.96
2017-07-31T02:57:28.985Z,1005.98
2017-07-31T02:57:55.194Z,1006.01
2017-07-31T02:58:21.307Z,1005.98
2017-07-31T02:58:47.461Z,1005.96
2017-07-31T02:59:13.638Z,1006
2017-07-31T02:59:39.834Z,1005.97
2017-07-31T03:00:05.991Z,1005.99
2017-07-31T03:00:32.208Z,1005.98
2017-07-31T03:00:58.344Z,1005.97
2017-07-31T03:01:24.462Z,1005.99
2017-07-31T03:01:50.620Z,1005.98
2017-07-31T03:02:16.752Z,1005.97
2017-07-31T03:02:42.870Z,1005.99
2017-07-31T03:03:08.986Z,1005.97
2017-07-31T03:03:35.138Z,1005.94
2017-07-31T03:04:01.355Z,1005.98
2017-07-31T03:04:27.492Z,1005.99
2017-07-31T03:04:53.668Z,1005.99
2017-07-31T03:05:19.880Z,1005.99
2017-07-31T03:05:46.021Z,1006.03
2017-07-31T03:06:12.164Z,1006.02
2017-07-31T03:06:38.320Z,1006.03
2017-07-31T03:07:04.513Z,1006.05
2017-07-31T03:07:30.682Z,1006.02
2017-07-31T03:07:56.841Z,1006.04
2017-07-31T03:08:22.987Z,1006.03
2017-07-31T03:08:49.135Z,1006.01
2017-07-31T03:09:15.245Z,1006.03
2017-07-31T03:09:41.418Z,1006.03
2017-07-31T03:10:07.603Z,1006.03
2017-07-31T03:10:33.743Z,1006.04
2017-07-31T03:10:59.882Z,1006.01
2017-07-31T03:11:26.008Z,1006.04
2017-07-31T03:11:52.123Z,1006.02
2017-07-31T03:12:18.287Z,1006.04
2017-07-31T03:12:44.410Z,1006.02
2017-07-31T03:13:10.526Z,1006.03
2017-07-31T03:13:36.666Z,1006.09
2017-07-31T03:14:02.816Z,1006.07
2017-07-31T03:14:28.922Z,1006.07
2017-07-31T03:14:55.109Z,1006.09
2017-07-31T03:15:21.224Z,1006.04
2017-07-31T03:15:47.362Z,1006.07
2017-07-31T03:16:13.553Z,1006.04
2017-07-31T03:16:39.693Z,1006.07
2017-07-31T03:17:05.837Z,1006.06
2017-07-31T03:17:31.987Z,1006.1
2017-07-31T03:17:58.114Z,1006.1
2017-07-31T03:18:24.218Z,1006.08
2017-07-31T03:18:50.340Z,1006.09
2017-07-31T03:19:16.528Z,1006.1
2017-07-31T03:19:42.660Z,1006.15
2017-07-31T03:20:08.817Z,1006.14
2017-07-31T03:20:34.956Z,1006.14
2017-07-31T03:21:01.109Z,1006.12
2017-07-31T03:21:27.285Z,1006.15
2017-07-31T03:21:53.370Z,1006.13
2017-07-31T03:22:19.542Z,1006.12
2017-07-31T03:22:45.765Z,1006.16
2017-07-31T03:23:11.961Z,1006.15
2017-07-31T03:23:38.079Z,1006.19
2017-07-31T03:24:04.264Z,1006.19
2017-07-31T03:24:30.439Z,1006.2
2017-07-31T03:24:56.545Z,1006.23
2017-07-31T03:25:22.761Z,1006.26
2017-07-31T03:25:48.881Z,1006.23
2017-07-31T03:26:15.034Z,1006.28
2017-07-31T03:26:41.358Z,1006.28
2017-07-31T03:27:07.560Z,1006.28
2017-07-31T03:27:33.680Z,1006.33
2017-07-31T03:27:59.821Z,1006.31
2017-07-31T03:28:25.989Z,1006.3
2017-07-31T03:28:52.145Z,1006.34
2017-07-31T03:29:18.319Z,1006.3
2017-07-31T03:29:44.454Z,1006.31
2017-07-31T03:30:10.642Z,1006.29
2017-07-31T03:30:36.821Z,1006.32
2017-07-31T03:31:02.972Z,1006.32
2017-07-31T03:31:29.146Z,1006.29
2017-07-31T03:31:55.285Z,1006.29
2017-07-31T03:32:21.439Z,1006.3
2017-07-31T03:32:47.655Z,1006.33
2017-07-31T03:33:13.790Z,1006.27
2017-07-31T03:33:39.944Z,1006.31
2017-07-31T03:34:06.088Z,1006.3
2017-07-31T03:34:32.284Z,1006.29
2017-07-31T03:34:58.468Z,1006.31
2017-07-31T03:35:24.623Z,1006.35
2017-07-31T03:35:50.758Z,1006.35
2017-07-31T03:36:16.933Z,1006.36
2017-07-31T03:36:43.150Z,1006.35
2017-07-31T03:37:09.261Z,1006.38
2017-07-31T03:37:35.374Z,1006.4
2017-07-31T03:38:01.501Z,1006.43
2017-07-31T03:38:27.642Z,1006.42
2017-07-31T03:38:53.781Z,1006.44
2017-07-31T03:39:20.000Z,1006.43
2017-07-31T03:39:46.147Z,1006.45
2017-07-31T03:40:12.287Z,1006.48
2017-07-31T03:40:38.474Z,1006.48
2017-07-31T03:41:04.590Z,1006.52
2017-07-31T03:41:30.755Z,1006.46
2017-07-31T03:41:56.934Z,1006.48
2017-07-31T03:42:23.094Z,1006.5
2017-07-31T03:42:49.254Z,1006.47
2017-07-31T03:43:15.399Z,1006.48
2017-07-31T03:43:41.533Z,1006.48
2017-07-31T03:44:07.684Z,1006.47
2017-07-31T03:44:33.834Z,1006.5
2017-07-31T03:44:59.969Z,1006.47
2017-07-31T03:45:26.092Z,1006.49
2017-07-31T03:45:52.244Z,1006.49
2017-07-31T03:46:18.411Z,1006.44
2017-07-31T03:46:44.527Z,1006.46
2017-07-31T03:47:10.681Z,1006.46
2017-07-31T03:47:36.878Z,1006.48
2017-07-31T03:48:03.032Z,1006.5
2017-07-31T03:48:29.138Z,1006.51
2017-07-31T03:48:55.285Z,1006.5
2017-07-31T03:49:21.478Z,1006.47
2017-07-31T03:49:47.638Z,1006.53
2017-07-31T03:50:13.814Z,1006.5
2017-07-31T03:50:39.997Z,1006.48
2017-07-31T03:51:06.132Z,1006.51
2017-07-31T03:51:32.274Z,1006.49
2017-07-31T03:51:58.461Z,1006.48
2017-07-31T03:52:24.659Z,1006.52
2017-07-31T03:52:50.796Z,1006.58
2017-07-31T03:53:16.948Z,1006.52
2017-07-31T03:53:43.069Z,1006.56
2017-07-31T03:54:09.286Z,1006.55
2017-07-31T03:54:35.421Z,1006.57
2017-07-31T03:55:01.561Z,1006.58
2017-07-31T03:55:27.748Z,1006.61
2017-07-31T03:55:53.892Z,1006.53
2017-07-31T03:56:20.000Z,1006.56
2017-07-31T03:56:46.223Z,1006.55
2017-07-31T03:57:12.335Z,1006.58
2017-07-31T03:57:38.476Z,1006.59
2017-07-31T03:58:04.746Z,1006.55
2017-07-31T03:58:30.893Z,1006.59
2017-07-31T03:58:57.097Z,1006.62
2017-07-31T03:59:23.261Z,1006.6
2017-07-31T03:59:49.398Z,1006.58
2017-07-31T04:00:15.587Z,1006.61
2017-07-31T04:00:41.886Z,1006.63
2017-07-31T04:01:08.055Z,1006.62
2017-07-31T04:01:34.181Z,1006.66
2017-07-31T04:02:00.292Z,1006.68
2017-07-31T04:02:26.430Z,1006.61
2017-07-31T04:02:52.582Z,1006.67
2017-07-31T04:03:18.728Z,1006.67
2017-07-31T04:03:44.893Z,1006.65
2017-07-31T04:04:11.068Z,1006.68
2017-07-31T04:04:37.215Z,1006.7
2017-07-31T04:05:03.394Z,1006.62
2017-07-31T04:05:29.610Z,1006.69
2017-07-31T04:05:55.743Z,1006.68
2017-07-31T04:06:21.895Z,1006.74
2017-07-31T04:06:48.050Z,1006.71
2017-07-31T04:07:14.190Z,1006.71
2017-07-31T04:07:40.364Z,1006.75
2017-07-31T04:08:06.486Z,1006.72
2017-07-31T04:08:32.625Z,1006.73
2017-07-31T04:08:58.743Z,1006.73
2017-07-31T04:09:24.927Z,1006.75
2017-07-31T04:09:51.099Z,1006.77
2017-07-31T04:10:17.289Z,1006.77
2017-07-31T04:10:43.389Z,1006.78
2017-07-31T04:11:09.598Z,1006.76
2017-07-31T04:11:35.784Z,1006.78
2017-07-31T04:12:02.012Z,1006.78
2017-07-31T04:12:28.151Z,1006.78
2017-07-31T04:12:54.310Z,1006.79
2017-07-31T04:13:20.539Z,1006.78
2017-07-31T04:13:46.704Z,1006.79
2017-07-31T04:14:12.892Z,1006.78
2017-07-31T04:14:39.037Z,1006.79
2017-07-31T04:15:05.148Z,1006.8
2017-07-31T04:15:31.326Z,1006.82
2017-07-31T04:15:57.494Z,1006.81
2017-07-31T04:16:23.655Z,1006.83
2017-07-31T04:16:49.830Z,1006.85
2017-07-31T04:17:15.992Z,1006.86
2017-07-31T04:17:42.152Z,1006.88
2017-07-31T04:18:08.298Z,1006.87
2017-07-31T04:18:34.462Z,1006.86
2017-07-31T04:19:00.584Z,1006.91
2017-07-31T04:19:26.734Z,1006.93
2017-07-31T04:19:52.895Z,1006.95
2017-07-31T04:20:19.017Z,1006.94
2017-07-31T04:20:45.171Z,1006.95
2017-07-31T04:21:11.332Z,1006.92
2017-07-31T04:21:37.514Z,1006.95
2017-07-31T04:22:03.639Z,1006.95
2017-07-31T04:22:29.852Z,1006.94
2017-07-31T04:22:56.027Z,1006.95
2017-07-31T04:23:22.224Z,1006.97
2017-07-31T04:23:48.355Z,1006.96
2017-07-31T04:24:14.462Z,1006.96
2017-07-31T04:24:40.653Z,1006.97
2017-07-31T04:25:06.820Z,1006.98
2017-07-31T04:25:32.960Z,1006.96
2017-07-31T04:25:59.171Z,1006.98
2017-07-31T04:26:25.353Z,1007
2017-07-31T04:26:51.499Z,1007
2017-07-31T04:27:17.643Z,1007
2017-07-31T04:27:43.781Z,1007.02
2017-07-31T04:28:09.973Z,1007.06
2017-07-31T04:28:36.116Z,1007.08
2017-07-31T04:29:02.254Z,1007.05
2017-07-31T04:29:28.442Z,1007.07
2017-07-31T04:29:54.595Z,1007.05
2017-07-31T04:30:20.727Z,1007.08
2017-07-31T04:30:46.880Z,1007.1
2017-07-31T04:31:13.071Z,1007.08
2017-07-31T04:31:39.292Z,1007.11
2017-07-31T04:32:05.473Z,1007.08
2017-07-31T04:32:31.668Z,1007.11
2017-07-31T04:32:57.887Z,1007.07
2017-07-31T04:33:24.065Z,1007.08
2017-07-31T04:33:50.207Z,1007.09
2017-07-31T04:34:16.357Z,1007.08
2017-07-31T04:34:42.548Z,1007.07
2017-07-31T04:35:08.651Z,1007.09
2017-07-31T04:35:34.805Z,1007.07
2017-07-31T04:36:00.952Z,1007.02
2017-07-31T04:36:27.065Z,1007.07
2017-07-31T04:36:53.205Z,1007.06
2017-07-31T04:37:19.395Z,1007.04
2017-07-31T04:37:45.541Z,1007.08
2017-07-31T04:38:11.664Z,1007.03
2017-07-31T04:38:37.801Z,1007.04
2017-07-31T04:39:03.972Z,1007.06
2017-07-31T04:39:30.197Z,1007.03
2017-07-31T04:39:56.363Z,1007.07
2017-07-31T04:40:22.507Z,1007.07
2017-07-31T04:40:48.721Z,1007.06
2017-07-31T04:41:14.835Z,1007.09
2017-07-31T04:41:40.968Z,1007.04
2017-07-31T04:42:07.131Z,1007.05
2017-07-31T04:42:33.333Z,1007.06
2017-07-31T04:42:59.465Z,1007.07
2017-07-31T04:43:25.648Z,1007.08
2017-07-31T04:43:51.767Z,1007.06
2017-07-31T04:44:17.875Z,1007.11
2017-07-31T04:44:44.027Z,1007.1
2017-07-31T04:45:10.249Z,1007.14
2017-07-31T04:45:36.352Z,1007.14
2017-07-31T04:46:02.504Z,1007.18
2017-07-31T04:46:28.718Z,1007.17
2017-07-31T04:46:54.888Z,1007.2
2017-07-31T04:47:21.060Z,1007.16
2017-07-31T04:47:47.281Z,1007.19
2017-07-31T04:48:13.421Z,1007.18
2017-07-31T04:48:39.563Z,1007.16
2017-07-31T04:49:05.746Z,1007.19
2017-07-31T04:49:31.897Z,1007.21
2017-07-31T04:49:58.058Z,1007.18
2017-07-31T04:50:24.229Z,1007.18
2017-07-31T04:50:50.371Z,1007.14
2017-07-31T04:51:16.592Z,1007.15
2017-07-31T04:51:42.705Z,1007.16
2017-07-31T04:52:08.865Z,1007.13
2017-07-31T04:52:35.053Z,1007.11
2017-07-31T04:53:01.194Z,1007.14
2017-07-31T04:53:27.335Z,1007.12
2017-07-31T04:53:53.489Z,1007.1
2017-07-31T04:54:19.668Z,1007.11
2017-07-31T04:54:45.787Z,1007.14
2017-07-31T04:55:11.989Z,1007.11
2017-07-31T04:55:38.157Z,1007.1
2017-07-31T04:56:04.320Z,1007.11
2017-07-31T04:56:30.526Z,1007.12
2017-07-31T04:56:56.717Z,1007.1
2017-07-31T04:57:22.903Z,1007.14
2017-07-31T04:57:49.086Z,1007.13
2017-07-31T04:58:15.225Z,1007.13
2017-07-31T04:58:41.400Z,1007.1
2017-07-31T04:59:07.591Z,1007.12
2017-07-31T04:59:33.726Z,1007.09
2017-07-31T04:59:59.895Z,1007.13
2017-07-31T05:00:26.058Z,1007.09
2017-07-31T05:00:52.211Z,1007.13
2017-07-31T05:01:18.390Z,1007.12
2017-07-31T05:01:44.567Z,1007.13
2017-07-31T05:02:10.770Z,1007.1
2017-07-31T05:02:36.959Z,1007.11
2017-07-31T05:03:03.122Z,1007.13
2017-07-31T05:03:29.273Z,1007.14
2017-07-31T05:03:55.432Z,1007.13
2017-07-31T05:04:21.570Z,1007.13
2017-07-31T05:04:47.712Z,1007.12
2017-07-31T05:05:13.899Z,1007.15
2017-07-31T05:05:40.038Z,1007.16
2017-07-31T05:06:06.176Z,1007.17
2017-07-31T05:06:32.303Z,1007.15
2017-07-31T05:06:58.422Z,1007.15
2017-07-31T05:07:24.586Z,1007.16
2017-07-31T05:07:50.774Z,1007.17
2017-07-31T05:08:16.918Z,1007.19
2017-07-31T05:08:43.086Z,1007.19
2017-07-31T05:09:09.296Z,1007.17
2017-07-31T05:09:35.452Z,1007.16
2017-07-31T05:10:01.614Z,1007.21
2017-07-31T05:10:27.828Z,1007.2
2017-07-31T05:10:54.011Z,1007.22
2017-07-31T05:11:20.127Z,1007.21
2017-07-31T05:11:46.344Z,1007.19
2017-07-31T05:12:12.515Z,1007.2
2017-07-31T05:12:38.694Z,1007.21
2017-07-31T05:13:04.849Z,1007.2
2017-07-31T05:13:31.047Z,1007.22
2017-07-31T05:13:57.218Z,1007.21
2017-07-31T05:14:23.409Z,1007.24
2017-07-31T05:14:49.574Z,1007.24
2017-07-31T05:15:15.749Z,1007.27
2017-07-31T05:15:41.871Z,1007.25
2017-07-31T05:16:07.985Z,1007.27
2017-07-31T05:16:34.096Z,1007.26
2017-07-31T05:17:00.275Z,1007.28
2017-07-31T05:17:26.392Z,1007.27
2017-07-31T05:17:52.517Z,1007.28
2017-07-31T05:18:18.664Z,1007.28